バクー の空港の天気 - METARとTAF

ヘイダル・アリエフ国際空港(バクー) ( UBBB / BAK ) - アゼルバイジャン バクー
飛行場実況気象(Metar)
観測時間07/22 22:00 AZT (07/22 18:00 UTC)
風向・風速北 5m/s
視程10km以上
天気現象
少しの雲 雲底高度 1830m
全天の8割程度の雲 雲底高度 3050m
気温27℃
湿度74%
気圧1005hPa
METARUBBB 221800Z 35010KT 9999 FEW060CB BKN100 27/22 Q1005 R88/D NOSIG
過去の天気等 Google飛行場航空写真 Wunderground天気予報

過去48時間のMETAR

飛行場予報(TAF)
発表時間: 7/22 21:15 AZT (7/22 17:15 UTC)
予報対象時間: 22日22時 AZT ~ 23日22時 AZT
風向・風速北北西 7m/s
視程10km以上
少しの積乱雲 雲底高度 1520m
全天の8割程度の雲 雲底高度 3050m
22日22時 AZT ~ 23日9時 AZT に一時的に
天気現象弱い雷雨
全天の4割程度の雲 雲底高度 370m
全天の4割程度の積乱雲 雲底高度 1220m
23日10時 AZT ~ 23日11時 AZT に徐々に
風向・風速北 9m/s
全天の4割程度の雲 雲底高度 910m
全天の8割程度の雲 雲底高度 3050m
TAF UBBB 221715Z 2218/2318 33014KT 9999 FEW050CB BKN100 TX32/2311Z TN23/2302Z
TEMPO 2218/2305 -TSRA SCT012 SCT040CB
BECMG 2306/2307 35018KT SCT030 BKN100